Time;durP1;ratioP1;P1;durP2;ratioP2;P2;SDS_P1;SDS_P2;PMS_P1;PMS_P2;Temp;Humidity;BMP_temperature;BMP_pressure;BME280_temperature;BME280_humidity;BME280_pressure;Samples;Min_cycle;Max_cycle;Signal;HPM_P1;HPM_P2
2021/09/12 10:16:29;;;;;;;6.30;2.45;;;26.90;99.90;;;;;;5115405;27;20414;-73
2021/09/12 10:18:56;;;;;;;3.25;2.30;;;35.20;99.90;;;;;;5108102;28;20047;-72
2021/09/12 10:21:25;;;;;;;3.05;2.08;;;35.80;99.90;;;;;;5109792;28;20090;-72
2021/09/12 10:24:04;;;;;;;5.45;2.70;;;35.20;99.90;;;;;;5108803;28;20051;-72
2021/09/12 10:26:33;;;;;;;4.18;2.75;;;35.40;99.30;;;;;;5108359;28;20520;-73
2021/09/12 10:29:00;;;;;;;5.05;2.60;;;38.00;99.10;;;;;;5108812;28;20138;-72
2021/09/12 10:31:34;;;;;;;4.47;2.60;;;40.40;93.70;;;;;;5108947;28;20048;-72
2021/09/12 10:34:09;;;;;;;4.28;2.15;;;34.90;93.10;;;;;;5109115;28;20583;-72
2021/09/12 10:36:37;;;;;;;6.30;2.72;;;30.60;97.60;;;;;;5113105;28;20532;-72
2021/09/12 10:39:27;;;;;;;5.13;2.33;;;28.90;99.90;;;;;;5111573;27;20461;-72
2021/09/12 10:42:19;;;;;;;5.65;2.60;;;30.60;99.90;;;;;;5108471;28;20516;-72
2021/09/12 10:45:02;;;;;;;4.30;2.50;;;31.00;98.50;;;;;;5112018;27;20384;-72
2021/09/12 10:47:30;;;;;;;5.30;2.47;;;27.50;99.90;;;;;;5108129;28;20055;-72
2021/09/12 10:49:57;;;;;;;5.07;2.90;;;28.20;99.90;;;;;;5107618;27;20047;-72
2021/09/12 10:52:45;;;;;;;3.67;2.38;;;33.90;99.90;;;;;;5108720;27;20039;-72
2021/09/12 10:55:13;;;;;;;5.05;2.60;;;34.70;95.50;;;;;;5108427;27;20043;-72
2021/09/12 10:57:40;;;;;;;4.65;2.60;;;29.60;99.90;;;;;;5109023;27;20057;-72
2021/09/12 11:00:08;;;;;;;6.18;2.42;;;27.60;99.90;;;;;;5108976;28;20079;-72
2021/09/12 11:02:42;;;;;;;5.90;2.53;;;26.60;99.90;;;;;;5113910;28;20070;-73
2021/09/12 11:05:24;;;;;;;4.18;2.55;;;31.50;99.90;;;;;;5112366;28;20134;-72
2021/09/12 11:07:52;;;;;;;6.18;2.30;;;33.60;99.90;;;;;;5108527;28;20052;-72
2021/09/12 11:10:35;;;;;;;5.65;2.35;;;37.00;96.00;;;;;;5108652;28;20066;-72
2021/09/12 11:13:01;;;;;;;3.50;2.38;;;35.20;94.10;;;;;;5108368;28;20090;-72
2021/09/12 11:15:29;;;;;;;2.92;2.08;;;32.20;96.30;;;;;;5107693;28;20043;-72
2021/09/12 11:17:57;;;;;;;2.55;2.00;;;28.60;99.40;;;;;;5108627;27;20051;-72
2021/09/12 11:20:39;;;;;;;5.28;1.83;;;26.70;99.90;;;;;;5107347;28;20104;-72
2021/09/12 11:23:06;;;;;;;3.63;1.70;;;26.50;99.90;;;;;;5107744;28;20066;-72
2021/09/12 11:25:33;;;;;;;4.28;1.83;;;28.00;99.90;;;;;;5108091;28;20533;-72
2021/09/12 11:28:01;;;;;;;5.03;2.13;;;28.50;99.50;;;;;;5095795;28;20053;-72
2021/09/12 11:30:29;;;;;;;6.38;2.30;;;27.50;99.90;;;;;;5094220;28;20142;-72
2021/09/12 11:32:57;;;;;;;4.22;1.88;;;30.40;99.00;;;;;;5094504;28;20159;-72
2021/09/12 11:35:24;;;;;;;3.72;1.67;;;29.90;98.30;;;;;;5094327;28;20087;-72
2021/09/12 11:38:12;;;;;;;3.97;1.52;;;27.90;99.00;;;;;;5094546;28;20537;-71
2021/09/12 11:40:39;;;;;;;4.85;1.70;;;28.40;98.80;;;;;;5089469;28;20174;-72
2021/09/12 11:43:11;;;;;;;3.50;1.40;;;27.80;99.40;;;;;;5097803;28;20584;-72
2021/09/12 11:45:38;;;;;;;3.28;1.75;;;27.30;99.20;;;;;;5097772;28;20427;-72
2021/09/12 11:48:07;;;;;;;4.72;1.40;;;33.50;95.70;;;;;;5097759;28;20243;-72
2021/09/12 11:50:35;;;;;;;4.60;1.77;;;32.90;94.30;;;;;;5098788;28;20167;-72
2021/09/12 11:53:11;;;;;;;6.65;2.47;;;29.60;95.50;;;;;;5098385;28;20055;-72
2021/09/12 11:55:40;;;;;;;;;;;29.50;96.00;;;;;;5094048;28;20047;-72
2021/09/12 11:58:10;;;;;;;5.25;2.65;;;27.10;98.30;;;;;;5094893;28;20619;-72
2021/09/12 12:00:43;;;;;;;4.82;2.97;;;29.10;97.70;;;;;;5093887;28;20113;-72
2021/09/12 12:03:14;;;;;;;2.47;1.50;;;28.60;97.40;;;;;;5094399;28;20058;-72
2021/09/12 12:05:42;;;;;;;3.90;1.52;;;30.00;97.70;;;;;;5094458;28;20079;-72
2021/09/12 12:08:15;;;;;;;2.55;1.50;;;29.30;96.80;;;;;;5094065;28;20419;-72
2021/09/12 12:10:42;;;;;;;4.40;1.83;;;28.00;98.20;;;;;;5093884;28;20059;-72
2021/09/12 12:13:10;;;;;;;2.10;1.60;;;29.50;98.50;;;;;;5095008;28;20047;-71
2021/09/12 12:15:38;;;;;;;3.72;1.50;;;32.30;96.30;;;;;;5092795;28;20678;-72
2021/09/12 12:18:11;;;;;;;5.55;1.92;;;33.50;94.40;;;;;;5093722;28;20103;-72
2021/09/12 12:20:39;;;;;;;2.42;1.45;;;35.20;93.20;;;;;;5095214;28;20134;-72
2021/09/12 12:23:17;;;;;;;9.52;1.70;;;36.30;90.30;;;;;;5095813;28;20573;-71
2021/09/12 12:25:45;;;;;;;1.52;1.27;;;31.40;91.30;;;;;;5094301;28;20509;-71
2021/09/12 12:28:18;;;;;;;5.90;1.58;;;29.40;93.80;;;;;;5094581;28;20047;-71
2021/09/12 12:30:45;;;;;;;3.00;1.77;;;27.80;94.90;;;;;;5097605;28;20568;-71
2021/09/12 12:33:19;;;;;;;5.03;1.75;;;27.60;95.70;;;;;;5096790;28;20047;-72
2021/09/12 12:36:07;;;;;;;5.05;1.40;;;33.20;93.80;;;;;;5094790;28;20078;-72
2021/09/12 12:38:35;;;;;;;2.35;1.35;;;30.00;92.60;;;;;;5093708;28;20134;-71
2021/09/12 12:41:06;;;;;;;13.75;1.40;;;28.00;94.10;;;;;;5096693;28;20047;-71
2021/09/12 12:43:33;;;;;;;5.13;1.63;;;26.50;94.40;;;;;;5093379;28;20347;-71
2021/09/12 12:46:00;;;;;;;4.47;1.58;;;25.90;96.50;;;;;;5091892;28;20056;-71
2021/09/12 12:48:29;;;;;;;4.05;1.90;;;25.80;97.40;;;;;;5093277;28;20135;-71
2021/09/12 12:50:56;;;;;;;2.20;1.67;;;25.80;97.60;;;;;;5096132;28;20079;-71
2021/09/12 12:53:26;;;;;;;4.30;1.50;;;26.10;97.50;;;;;;5093387;28;20492;-72
2021/09/12 12:55:56;;;;;;;2.20;1.48;;;27.50;97.20;;;;;;5092279;28;20182;-72
2021/09/12 12:58:23;;;;;;;4.10;1.73;;;29.80;94.50;;;;;;5094066;28;20128;-72
2021/09/12 13:00:52;;;;;;;2.90;1.58;;;30.00;93.60;;;;;;5095343;28;20079;-72
2021/09/12 13:03:20;;;;;;;1.20;1.08;;;30.80;91.80;;;;;;5091702;28;20047;-72
2021/09/12 13:05:49;;;;;;;4.95;1.50;;;31.00;91.60;;;;;;5091536;28;20075;-72
2021/09/12 13:08:18;;;;;;;2.15;1.60;;;31.00;91.80;;;;;;5091807;28;20048;-72
2021/09/12 13:10:45;;;;;;;3.28;1.60;;;30.50;91.50;;;;;;5092005;28;20134;-72
2021/09/12 13:13:12;;;;;;;2.65;1.40;;;30.80;91.50;;;;;;5091102;28;20055;-72
2021/09/12 13:15:40;;;;;;;3.22;1.58;;;30.90;90.50;;;;;;5091733;28;20451;-71
2021/09/12 13:18:08;;;;;;;3.15;1.73;;;30.80;91.00;;;;;;5091554;28;20090;-71
2021/09/12 13:20:36;;;;;;;2.05;1.50;;;31.70;89.50;;;;;;5092105;28;21063;-71
2021/09/12 13:23:05;;;;;;;3.15;1.73;;;29.50;90.60;;;;;;5093024;28;20514;-71
2021/09/12 13:25:32;;;;;;;3.22;1.73;;;29.50;90.40;;;;;;5090713;28;20138;-71
2021/09/12 13:28:00;;;;;;;3.47;2.00;;;30.20;89.40;;;;;;5091801;28;20052;-72
2021/09/12 13:30:28;;;;;;;6.10;2.30;;;30.10;90.10;;;;;;5091504;28;20078;-71
2021/09/12 13:32:55;;;;;;;3.65;2.10;;;29.70;90.40;;;;;;5093842;28;20082;-71
2021/09/12 13:35:22;;;;;;;4.00;1.85;;;29.00;91.00;;;;;;5090939;28;20162;-71
2021/09/12 13:37:50;;;;;;;3.25;2.10;;;29.70;91.10;;;;;;5091520;28;20101;-71
2021/09/12 13:40:19;;;;;;;3.72;1.90;;;29.70;90.90;;;;;;5090843;28;20178;-71
2021/09/12 13:42:47;;;;;;;4.43;1.70;;;29.30;90.20;;;;;;5091465;28;20108;-72
2021/09/12 13:45:15;;;;;;;3.13;1.77;;;30.80;90.50;;;;;;5091585;28;20507;-72
2021/09/12 13:47:42;;;;;;;4.72;1.98;;;31.10;89.00;;;;;;5090750;28;20138;-72
2021/09/12 13:50:11;;;;;;;7.30;2.20;;;31.40;90.60;;;;;;5090951;28;20765;-71
2021/09/12 13:52:38;;;;;;;4.10;2.17;;;30.40;91.60;;;;;;5090766;28;20055;-71
2021/09/12 13:55:07;;;;;;;4.28;1.80;;;28.80;91.90;;;;;;5090976;28;20055;-71
2021/09/12 13:57:36;;;;;;;4.55;2.10;;;28.50;92.70;;;;;;5092161;28;20047;-71
2021/09/12 14:00:03;;;;;;;3.50;1.90;;;28.20;93.70;;;;;;5091298;28;20070;-71
2021/09/12 14:02:30;;;;;;;5.55;1.95;;;28.60;93.30;;;;;;5093231;28;20082;-71
2021/09/12 14:04:57;;;;;;;2.70;1.70;;;29.00;92.90;;;;;;5090831;28;20047;-71
2021/09/12 14:07:28;;;;;;;6.00;2.20;;;27.90;93.50;;;;;;5092343;28;20105;-71
2021/09/12 14:09:55;;;;;;;5.32;2.78;;;28.40;94.30;;;;;;5091860;28;20483;-71
2021/09/12 14:12:23;;;;;;;4.65;2.78;;;28.10;93.10;;;;;;5091087;28;20048;-71
2021/09/12 14:14:51;;;;;;;4.85;2.90;;;27.20;94.40;;;;;;5090193;28;20062;-71
2021/09/12 14:17:18;;;;;;;7.22;3.05;;;27.60;95.10;;;;;;5089973;28;20097;-71
2021/09/12 14:19:45;;;;;;;6.57;2.95;;;28.50;94.20;;;;;;5090859;28;20048;-72
2021/09/12 14:22:12;;;;;;;5.00;3.22;;;28.70;94.60;;;;;;5091841;28;20519;-71
2021/09/12 14:24:39;;;;;;;5.80;2.85;;;27.50;95.40;;;;;;5090522;28;20453;-71
2021/09/12 14:27:06;;;;;;;7.15;3.13;;;28.10;94.30;;;;;;5091395;28;20075;-71
2021/09/12 14:29:33;;;;;;;5.95;3.30;;;28.30;93.50;;;;;;5090938;28;20674;-71
2021/09/12 14:32:02;;;;;;;8.48;3.53;;;27.60;94.00;;;;;;5091650;28;20116;-71
2021/09/12 14:34:29;;;;;;;9.88;3.30;;;27.60;94.60;;;;;;5090970;28;20051;-71
2021/09/12 14:36:56;;;;;;;6.78;3.17;;;28.10;94.10;;;;;;5089958;28;20044;-71
2021/09/12 14:39:23;;;;;;;4.80;2.92;;;28.20;93.70;;;;;;5090984;28;20079;-71
2021/09/12 14:41:50;;;;;;;5.95;3.08;;;27.40;94.50;;;;;;5090884;28;20392;-71
2021/09/12 14:44:17;;;;;;;8.73;3.58;;;28.00;93.80;;;;;;5091448;28;20055;-71
2021/09/12 14:46:44;;;;;;;5.70;3.17;;;28.20;93.70;;;;;;5090415;28;20044;-71
2021/09/12 14:49:13;;;;;;;5.97;3.20;;;28.40;93.20;;;;;;5090513;28;20110;-71
2021/09/12 14:51:40;;;;;;;5.20;3.10;;;27.90;93.70;;;;;;5090494;28;20075;-70
2021/09/12 14:54:07;;;;;;;9.48;2.92;;;27.20;94.70;;;;;;5089497;28;20476;-71
2021/09/12 14:56:34;;;;;;;4.88;2.75;;;27.70;94.20;;;;;;5090849;28;20134;-71
2021/09/12 14:59:01;;;;;;;5.28;2.83;;;27.40;94.20;;;;;;5092211;28;20144;-71
2021/09/12 15:01:29;;;;;;;5.07;3.17;;;26.70;94.70;;;;;;5091437;28;20074;-71
2021/09/12 15:03:56;;;;;;;5.05;2.90;;;26.30;96.10;;;;;;5094588;28;20625;-71
2021/09/12 15:06:24;;;;;;;6.85;3.08;;;27.20;95.40;;;;;;5093380;28;20490;-71
2021/09/12 15:08:51;;;;;;;7.90;3.50;;;27.70;94.80;;;;;;5094192;28;20097;-71
2021/09/12 15:11:18;;;;;;;7.35;3.20;;;27.80;94.90;;;;;;5093921;28;20580;-71
2021/09/12 15:13:45;;;;;;;7.05;3.00;;;27.10;96.20;;;;;;5096411;28;20052;-71
2021/09/12 15:16:12;;;;;;;6.22;3.50;;;27.30;95.40;;;;;;5094553;28;20116;-71
2021/09/12 15:18:39;;;;;;;8.55;3.50;;;27.50;95.10;;;;;;5095887;28;20051;-71
2021/09/12 15:21:06;;;;;;;7.82;3.92;;;26.60;95.80;;;;;;5096823;28;20134;-71
2021/09/12 15:23:35;;;;;;;6.53;3.10;;;27.00;95.70;;;;;;5093233;28;20184;-71
2021/09/12 15:26:02;;;;;;;10.88;3.17;;;27.00;95.10;;;;;;5093155;28;20446;-71
2021/09/12 15:28:29;;;;;;;6.72;3.30;;;26.70;95.00;;;;;;5094840;28;20047;-71
2021/09/12 15:30:56;;;;;;;5.10;3.17;;;26.40;95.50;;;;;;5096068;28;20075;-71
2021/09/12 15:33:23;;;;;;;8.32;3.20;;;26.10;96.00;;;;;;5096456;28;20515;-71
2021/09/12 15:35:50;;;;;;;9.98;4.03;;;26.20;96.50;;;;;;5095633;28;20478;-71
2021/09/12 15:38:17;;;;;;;6.25;3.25;;;26.40;97.00;;;;;;5093394;28;20587;-71
2021/09/12 15:40:46;;;;;;;7.78;3.17;;;26.20;96.20;;;;;;5094171;28;20087;-71
2021/09/12 15:43:13;;;;;;;6.95;3.35;;;26.20;96.90;;;;;;5092964;28;20485;-71
2021/09/12 15:45:40;;;;;;;7.00;3.33;;;25.90;96.70;;;;;;5092441;28;20090;-71
2021/09/12 15:48:07;;;;;;;7.93;3.40;;;25.70;97.80;;;;;;5092796;28;20043;-70
2021/09/12 15:50:34;;;;;;;7.20;3.13;;;25.80;97.50;;;;;;5092274;28;20044;-71
2021/09/12 15:53:03;;;;;;;4.82;3.00;;;25.60;97.30;;;;;;5095335;28;20083;-71
2021/09/12 15:55:30;;;;;;;6.38;3.05;;;25.60;97.20;;;;;;5094399;28;20047;-71
2021/09/12 15:57:58;;;;;;;5.85;3.67;;;25.50;97.60;;;;;;5093970;28;20087;-70
2021/09/12 16:00:25;;;;;;;6.15;3.35;;;24.90;98.00;;;;;;5093343;28;20504;-70
2021/09/12 16:02:52;;;;;;;6.43;3.30;;;24.90;97.80;;;;;;5097176;28;20081;-70
2021/09/12 16:05:19;;;;;;;8.70;3.22;;;25.00;98.20;;;;;;5095432;28;20591;-71
2021/09/12 16:07:46;;;;;;;6.38;3.83;;;25.20;98.00;;;;;;5091840;28;20420;-70
2021/09/12 16:10:13;;;;;;;6.25;3.30;;;24.70;98.80;;;;;;5092705;28;20526;-70
2021/09/12 16:12:40;;;;;;;8.15;4.32;;;24.70;98.50;;;;;;5093812;28;20075;-71
2021/09/12 16:15:10;;;;;;;6.10;3.78;;;24.70;98.60;;;;;;5094159;28;20059;-70
2021/09/12 16:17:37;;;;;;;7.63;4.15;;;24.10;99.60;;;;;;5093417;28;20113;-70
2021/09/12 16:20:05;;;;;;;6.68;3.95;;;24.10;99.90;;;;;;5094239;28;20044;-70
2021/09/12 16:22:32;;;;;;;12.40;4.38;;;24.00;99.90;;;;;;5094876;28;20144;-71
2021/09/12 16:24:59;;;;;;;10.27;4.20;;;24.00;99.90;;;;;;5093330;28;20580;-71
2021/09/12 16:27:26;;;;;;;7.18;3.90;;;23.70;99.90;;;;;;5096760;28;20057;-70
2021/09/12 16:29:53;;;;;;;7.10;4.10;;;23.10;99.90;;;;;;5094544;28;20051;-70
2021/09/12 16:32:21;;;;;;;7.28;4.32;;;22.80;99.90;;;;;;5094737;28;20184;-70
2021/09/12 16:34:49;;;;;;;7.47;4.28;;;22.70;99.90;;;;;;5094599;28;20058;-72
2021/09/12 16:37:16;;;;;;;7.47;4.38;;;22.60;99.90;;;;;;5093492;28;20146;-70
2021/09/12 16:39:43;;;;;;;6.53;3.72;;;22.50;99.90;;;;;;5096065;28;20532;-71
2021/09/12 16:42:10;;;;;;;7.50;4.07;;;22.70;99.90;;;;;;5095851;28;20495;-71
2021/09/12 16:44:41;;;;;;;8.32;4.15;;;23.00;99.90;;;;;;5094136;28;20051;-71
2021/09/12 16:47:14;;;;;;;7.80;4.13;;;23.00;99.90;;;;;;5093527;28;20480;-71
2021/09/12 16:49:42;;;;;;;10.40;4.43;;;23.00;99.90;;;;;;5092833;28;20059;-71
2021/09/12 16:52:09;;;;;;;7.55;4.63;;;23.00;99.90;;;;;;5093005;28;20999;-71
2021/09/12 16:54:36;;;;;;;9.00;5.18;;;22.90;99.90;;;;;;5094742;28;20388;-71
2021/09/12 16:57:05;;;;;;;10.30;4.93;;;22.80;99.90;;;;;;5092516;28;20091;-71
2021/09/12 16:59:32;;;;;;;7.97;4.25;;;22.60;99.90;;;;;;5093397;28;20059;-71
2021/09/12 17:01:59;;;;;;;7.50;4.10;;;22.50;99.90;;;;;;5094049;28;20368;-71
2021/09/12 17:04:26;;;;;;;8.68;4.40;;;22.40;99.90;;;;;;5093047;28;20112;-71
2021/09/12 17:06:54;;;;;;;7.43;4.07;;;22.40;99.90;;;;;;5092508;28;20083;-71
2021/09/12 17:09:22;;;;;;;9.77;4.50;;;22.10;99.90;;;;;;5094200;28;20051;-72
2021/09/12 17:11:49;;;;;;;8.27;4.32;;;22.00;99.90;;;;;;5090914;28;20531;-71
2021/09/12 17:14:16;;;;;;;7.15;4.20;;;21.80;99.90;;;;;;5083936;28;20127;-72
2021/09/12 17:16:43;;;;;;;9.75;3.85;;;21.50;99.90;;;;;;5088835;28;20051;-71
2021/09/12 17:19:10;;;;;;;9.45;4.63;;;21.20;99.90;;;;;;5088501;28;20134;-72
2021/09/12 17:21:37;;;;;;;9.02;5.07;;;20.90;99.90;;;;;;5087068;28;20063;-71
2021/09/12 17:24:06;;;;;;;10.88;4.43;;;20.80;99.90;;;;;;5081101;28;20100;-71
2021/09/12 17:26:33;;;;;;;9.57;4.47;;;20.70;99.90;;;;;;5084786;28;20040;-72
2021/09/12 17:29:00;;;;;;;8.35;4.43;;;20.40;99.90;;;;;;5085850;28;20097;-71
2021/09/12 17:31:27;;;;;;;10.23;4.93;;;20.40;99.90;;;;;;5085092;28;20124;-72
2021/09/12 17:33:54;;;;;;;8.25;4.57;;;20.20;99.90;;;;;;5086011;28;20083;-72
2021/09/12 17:36:21;;;;;;;7.20;4.40;;;20.10;99.90;;;;;;5085576;28;20051;-71
2021/09/12 17:38:48;;;;;;;7.43;4.28;;;20.00;99.90;;;;;;5083922;28;20506;-72
2021/09/12 17:41:16;;;;;;;9.73;5.38;;;19.90;99.90;;;;;;5084923;28;20055;-72
2021/09/12 17:43:43;;;;;;;7.82;4.68;;;19.70;99.90;;;;;;5086360;28;20092;-72
2021/09/12 17:46:10;;;;;;;10.07;5.05;;;19.50;99.90;;;;;;5087696;28;20067;-70
2021/09/12 17:48:37;;;;;;;9.50;4.97;;;19.50;99.90;;;;;;5087626;28;20113;-73
2021/09/12 17:51:04;;;;;;;6.93;4.35;;;19.50;99.90;;;;;;5090538;28;20461;-71
2021/09/12 17:53:31;;;;;;;10.70;4.95;;;19.50;99.90;;;;;;5092045;28;20044;-73
2021/09/12 17:55:59;;;;;;;9.43;4.82;;;19.50;99.90;;;;;;5091552;28;21171;-71
2021/09/12 17:58:27;;;;;;;8.45;4.63;;;19.50;99.90;;;;;;5089164;28;20404;-72
2021/09/12 18:00:55;;;;;;;8.25;4.60;;;19.50;99.90;;;;;;5088590;28;20058;-74
2021/09/12 18:05:49;;;;;;;11.15;4.88;;;19.50;99.90;;;;;;5096404;27;21229;-73
2021/09/12 18:08:18;;;;;;;9.15;5.78;;;19.90;99.90;;;;;;5067247;28;20091;-69
2021/09/12 18:10:45;;;;;;;10.63;6.40;;;19.80;99.90;;;;;;5065324;28;20071;-70
2021/09/12 18:13:15;;;;;;;7.90;5.05;;;19.80;99.90;;;;;;5064857;28;20077;-70
2021/09/12 18:15:42;;;;;;;10.02;4.72;;;19.70;99.90;;;;;;5063727;28;20102;-70
2021/09/12 18:18:09;;;;;;;8.82;4.35;;;19.90;99.90;;;;;;5065367;28;20048;-70
2021/09/12 18:20:36;;;;;;;10.60;4.53;;;20.20;99.90;;;;;;5063102;28;20121;-70
2021/09/12 18:23:05;;;;;;;9.07;4.97;;;20.20;99.90;;;;;;5062476;28;20093;-70
2021/09/12 18:25:32;;;;;;;12.90;6.78;;;20.10;99.90;;;;;;5062328;28;20098;-70
2021/09/12 18:27:59;;;;;;;7.90;4.97;;;19.80;99.90;;;;;;5062762;28;20048;-70
2021/09/12 18:30:27;;;;;;;9.65;6.05;;;19.50;99.90;;;;;;5061308;28;20049;-70
2021/09/12 18:32:54;;;;;;;8.98;4.82;;;19.50;99.90;;;;;;5061858;28;20055;-70
2021/09/12 18:35:21;;;;;;;10.25;4.35;;;19.30;99.90;;;;;;5054626;28;20048;-69
2021/09/12 18:37:50;;;;;;;10.48;5.28;;;19.10;99.90;;;;;;5059331;28;20415;-70
2021/09/12 18:40:21;;;;;;;7.45;4.72;;;19.20;99.90;;;;;;5058121;28;20125;-70
2021/09/12 18:42:49;;;;;;;7.57;4.60;;;19.20;99.90;;;;;;5057856;28;20079;-70
2021/09/12 18:45:16;;;;;;;9.02;6.05;;;19.30;99.90;;;;;;5057924;28;20044;-70
2021/09/12 18:47:44;;;;;;;9.98;5.45;;;19.10;99.90;;;;;;5064309;28;20048;-70
2021/09/12 18:50:12;;;;;;;7.70;4.90;;;19.00;99.90;;;;;;5060082;28;20049;-70
2021/09/12 18:52:40;;;;;;;9.95;5.13;;;18.90;99.90;;;;;;5056688;28;20479;-70
2021/09/12 18:55:08;;;;;;;9.57;6.20;;;18.70;99.90;;;;;;5055867;28;20588;-69
2021/09/12 18:57:37;;;;;;;9.77;6.03;;;18.60;99.90;;;;;;5055791;28;20080;-70
2021/09/12 19:00:05;;;;;;;11.63;6.28;;;18.60;99.90;;;;;;5059711;28;20055;-69
2021/09/12 19:02:32;;;;;;;13.07;5.40;;;18.80;99.90;;;;;;5058814;28;20513;-70
2021/09/12 19:04:59;;;;;;;8.95;5.22;;;18.90;99.90;;;;;;5060525;28;20504;-69
2021/09/12 19:07:27;;;;;;;8.60;5.50;;;18.60;99.90;;;;;;5060262;28;20051;-69
2021/09/12 19:09:54;;;;;;;9.15;5.28;;;18.40;99.90;;;;;;5057562;28;20505;-70
2021/09/12 19:12:22;;;;;;;9.32;5.72;;;18.40;99.90;;;;;;5058683;28;20044;-69
2021/09/12 19:14:50;;;;;;;8.73;5.80;;;18.30;99.90;;;;;;5057160;28;20504;-70
2021/09/12 19:17:17;;;;;;;10.23;5.45;;;18.30;99.90;;;;;;5042501;28;20051;-70
2021/09/12 19:19:45;;;;;;;7.97;4.88;;;18.00;99.90;;;;;;5035082;28;20059;-69
2021/09/12 19:22:12;;;;;;;8.88;5.28;;;17.80;99.90;;;;;;5036485;28;20046;-70
2021/09/12 19:24:40;;;;;;;10.25;5.38;;;17.70;99.90;;;;;;5043609;28;20121;-69
2021/09/12 19:27:09;;;;;;;7.53;4.75;;;17.60;99.90;;;;;;5042903;28;20573;-68
2021/09/12 19:29:36;;;;;;;9.38;5.30;;;17.60;99.90;;;;;;5041966;28;20756;-68
2021/09/12 19:32:05;;;;;;;8.95;5.47;;;17.60;99.90;;;;;;5041808;28;20052;-69
2021/09/12 19:34:32;;;;;;;8.93;5.32;;;17.50;99.90;;;;;;5045698;28;20055;-69
2021/09/12 19:37:00;;;;;;;9.93;5.65;;;17.50;99.90;;;;;;5039016;28;20398;-69
2021/09/12 19:39:27;;;;;;;9.77;5.90;;;17.50;99.90;;;;;;5040145;28;20886;-69
2021/09/12 19:41:54;;;;;;;10.15;6.40;;;17.60;99.90;;;;;;5043278;28;20048;-68
2021/09/12 19:44:21;;;;;;;9.55;5.30;;;17.50;99.90;;;;;;5043425;28;20056;-69
2021/09/12 19:46:48;;;;;;;9.20;5.00;;;17.50;99.90;;;;;;5043706;28;20099;-68
2021/09/12 19:49:17;;;;;;;10.45;6.13;;;17.40;99.90;;;;;;5040629;28;20060;-69
2021/09/12 19:51:44;;;;;;;16.10;7.68;;;17.40;99.90;;;;;;5042040;28;20044;-69
2021/09/12 19:54:12;;;;;;;11.40;5.85;;;17.50;99.90;;;;;;5044747;28;20440;-69
2021/09/12 19:56:43;;;;;;;13.43;6.60;;;17.30;99.90;;;;;;5043635;28;20065;-69
2021/09/12 19:59:10;;;;;;;12.05;7.80;;;17.20;99.90;;;;;;5045313;28;20131;-69
2021/09/12 20:01:37;;;;;;;10.45;7.38;;;17.10;99.90;;;;;;5047148;28;20527;-69
2021/09/12 20:04:04;;;;;;;12.57;7.78;;;17.00;99.90;;;;;;5043426;28;20060;-68
2021/09/12 20:06:33;;;;;;;12.13;6.63;;;17.00;99.90;;;;;;5044482;28;20052;-68
2021/09/12 20:09:00;;;;;;;9.70;6.10;;;16.90;99.90;;;;;;5047135;28;21048;-68
2021/09/12 20:11:27;;;;;;;11.90;5.78;;;16.80;99.90;;;;;;5045056;28;20052;-69
2021/09/12 20:13:54;;;;;;;11.20;6.35;;;16.80;99.90;;;;;;5046106;28;20075;-69
2021/09/12 20:16:22;;;;;;;11.85;6.50;;;16.70;99.90;;;;;;5042514;28;20053;-69
2021/09/12 20:18:49;;;;;;;9.82;5.85;;;16.90;99.90;;;;;;5043588;28;20055;-68
2021/09/12 20:21:16;;;;;;;11.07;6.00;;;17.00;99.90;;;;;;5041982;28;20075;-69
2021/09/12 20:23:45;;;;;;;13.57;6.82;;;17.10;99.90;;;;;;5043977;28;20057;-69
2021/09/12 20:26:13;;;;;;;11.20;7.75;;;17.00;99.90;;;;;;5031602;28;20053;-69
2021/09/12 20:28:40;;;;;;;9.68;6.65;;;16.80;99.90;;;;;;5035440;28;20052;-69
2021/09/12 20:31:07;;;;;;;13.23;8.02;;;16.80;99.90;;;;;;5037667;28;20059;-69
2021/09/12 20:33:34;;;;;;;17.17;9.05;;;16.70;99.90;;;;;;5040992;28;20383;-69
2021/09/12 20:36:02;;;;;;;10.48;7.32;;;16.60;99.90;;;;;;5040970;28;20048;-68
2021/09/12 20:38:29;;;;;;;11.43;7.65;;;16.60;99.90;;;;;;5039831;28;20057;-68
2021/09/12 20:40:58;;;;;;;12.65;7.20;;;16.60;99.90;;;;;;5041004;28;20046;-69
2021/09/12 20:43:26;;;;;;;13.30;7.65;;;16.90;99.90;;;;;;5034905;28;20159;-68
2021/09/12 20:45:53;;;;;;;15.25;7.38;;;16.60;99.90;;;;;;5032212;28;20048;-68
2021/09/12 20:48:20;;;;;;;11.63;7.60;;;16.40;99.90;;;;;;5037130;28;20631;-68
2021/09/12 20:50:48;;;;;;;12.85;7.97;;;16.50;99.90;;;;;;5038932;28;20080;-69
2021/09/12 20:53:15;;;;;;;12.07;8.23;;;16.60;99.90;;;;;;5032774;28;20053;-69
2021/09/12 20:55:42;;;;;;;17.75;11.25;;;16.70;99.90;;;;;;5038189;28;20088;-68
2021/09/12 20:58:10;;;;;;;15.20;9.95;;;16.70;99.90;;;;;;5039832;28;20049;-68
2021/09/12 21:00:40;;;;;;;13.50;8.85;;;16.50;99.90;;;;;;5038439;28;20509;-69
2021/09/12 21:03:07;;;;;;;10.52;6.57;;;16.40;99.90;;;;;;5041684;28;20097;-69
2021/09/12 21:05:34;;;;;;;11.35;7.38;;;16.30;99.90;;;;;;5035308;28;20041;-69
2021/09/12 21:08:01;;;;;;;12.77;8.13;;;16.20;99.90;;;;;;5035099;28;20055;-69
2021/09/12 21:10:28;;;;;;;17.98;10.05;;;16.30;99.90;;;;;;5038075;28;20045;-69
2021/09/12 21:12:55;;;;;;;14.65;10.75;;;16.40;99.90;;;;;;5040630;28;20130;-69
2021/09/12 21:15:24;;;;;;;13.30;8.88;;;16.40;99.90;;;;;;5043815;28;20493;-69
2021/09/12 21:17:51;;;;;;;12.93;8.55;;;16.20;99.90;;;;;;5044549;28;20135;-69
2021/09/12 21:20:18;;;;;;;11.57;7.57;;;16.00;99.90;;;;;;5041409;28;20521;-68
2021/09/12 21:22:45;;;;;;;11.80;7.78;;;16.00;99.90;;;;;;5042538;28;20081;-69
2021/09/12 21:25:13;;;;;;;10.65;7.03;;;15.90;99.90;;;;;;5040179;28;20049;-68
2021/09/12 21:27:39;;;;;;;13.10;8.25;;;15.90;99.90;;;;;;5043022;28;20584;-69
2021/09/12 21:30:08;;;;;;;10.55;7.03;;;15.80;99.90;;;;;;5039612;28;20492;-68
2021/09/12 21:32:37;;;;;;;11.70;7.70;;;15.80;99.90;;;;;;5045727;28;20088;-68
2021/09/12 21:35:04;;;;;;;11.07;7.35;;;15.80;99.90;;;;;;5044309;28;20044;-69
2021/09/12 21:37:31;;;;;;;12.48;7.53;;;15.90;99.90;;;;;;5044294;28;20088;-68
2021/09/12 21:39:58;;;;;;;13.02;7.75;;;15.90;99.90;;;;;;5041544;28;20053;-69
2021/09/12 21:42:25;;;;;;;14.60;7.63;;;15.80;99.90;;;;;;5038055;28;20068;-68
2021/09/12 21:44:52;;;;;;;11.48;6.72;;;15.90;99.90;;;;;;5038837;28;20047;-69
2021/09/12 21:47:20;;;;;;;13.15;7.40;;;16.20;99.90;;;;;;5034446;28;20554;-69
2021/09/12 21:49:49;;;;;;;11.32;6.88;;;16.20;99.90;;;;;;5035300;28;20064;-69
2021/09/12 21:52:16;;;;;;;10.80;7.25;;;15.90;99.90;;;;;;5035229;28;20121;-68
2021/09/12 21:54:43;;;;;;;11.20;7.15;;;16.10;99.90;;;;;;5041345;28;20060;-69
2021/09/12 21:57:10;;;;;;;13.05;7.97;;;16.10;99.90;;;;;;5037562;28;20080;-69
2021/09/12 21:59:38;;;;;;;13.20;7.30;;;16.00;99.90;;;;;;5033621;28;20171;-68
2021/09/12 22:02:07;;;;;;;15.07;7.78;;;16.10;99.90;;;;;;5033418;28;20067;-68
2021/09/12 22:04:34;;;;;;;14.32;7.07;;;16.10;99.90;;;;;;5037196;28;20045;-69
2021/09/12 22:07:03;;;;;;;11.85;7.05;;;16.00;99.90;;;;;;5035301;28;20041;-69
2021/09/12 22:09:30;;;;;;;11.35;7.40;;;16.00;99.90;;;;;;5037113;28;20053;-69
2021/09/12 22:11:57;;;;;;;11.88;7.57;;;16.10;99.90;;;;;;5034634;28;20130;-68
2021/09/12 22:14:24;;;;;;;13.00;7.47;;;16.20;99.90;;;;;;5033306;28;20049;-68
2021/09/12 22:16:51;;;;;;;11.27;7.35;;;16.30;99.90;;;;;;5031084;28;20055;-68
2021/09/12 22:19:18;;;;;;;15.65;7.72;;;16.30;99.90;;;;;;5034636;28;20064;-69
2021/09/12 22:21:45;;;;;;;14.20;7.90;;;16.30;99.90;;;;;;5031370;28;20087;-69
2021/09/12 22:24:13;;;;;;;12.20;7.03;;;16.10;99.90;;;;;;5035071;28;20134;-69
2021/09/12 22:26:40;;;;;;;19.45;7.50;;;16.10;99.90;;;;;;5030059;28;20397;-69
2021/09/12 22:29:13;;;;;;;12.75;7.57;;;15.90;99.90;;;;;;5041419;28;20049;-71
2021/09/12 22:31:40;;;;;;;12.70;7.32;;;15.90;99.90;;;;;;5043073;28;20509;-75
2021/09/12 22:34:07;;;;;;;12.15;7.50;;;15.80;99.90;;;;;;5036825;28;20489;-73
2021/09/12 22:36:34;;;;;;;11.10;6.72;;;15.80;99.90;;;;;;5034915;28;20570;-72
2021/09/12 22:39:01;;;;;;;10.40;6.75;;;15.80;99.90;;;;;;5035291;28;20124;-72
2021/09/12 22:41:29;;;;;;;14.65;8.00;;;15.90;99.90;;;;;;5037109;28;20044;-72
2021/09/12 22:43:56;;;;;;;12.70;7.15;;;15.90;99.90;;;;;;5034395;28;20048;-71
2021/09/12 22:46:23;;;;;;;10.98;7.03;;;16.00;99.90;;;;;;5033557;28;20120;-72
2021/09/12 22:48:50;;;;;;;10.85;6.70;;;15.90;99.90;;;;;;5036121;28;20171;-71
2021/09/12 22:51:17;;;;;;;11.73;7.15;;;15.80;99.90;;;;;;5037413;28;20044;-69
2021/09/12 22:53:44;;;;;;;11.13;7.10;;;15.80;99.90;;;;;;5037075;28;20049;-69
2021/09/12 22:56:11;;;;;;;12.20;7.10;;;15.90;99.90;;;;;;5034455;28;20473;-69
2021/09/12 22:58:39;;;;;;;10.02;6.63;;;16.20;99.90;;;;;;5025728;28;20163;-69
2021/09/12 23:01:06;;;;;;;10.57;6.38;;;16.20;99.90;;;;;;5035230;28;20721;-69
2021/09/12 23:03:36;;;;;;;12.13;6.53;;;16.30;99.90;;;;;;5037671;28;20084;-69
2021/09/12 23:06:03;;;;;;;10.98;6.60;;;16.20;99.90;;;;;;5037194;28;20088;-69